الصفحة الرئيسية
METAR-TAF:

METAR-TAF

مطار :

مطار تشونغتشينغ جيانغبى الدولي

تشونغتشينغ, جمهورية الصين الشعبية

دائرة عرض: 29-31N, خط طول: 106-29E, ارتفاع: 351 متر

مراقبة الطقس الحالي

تاريخ ووقت الإصدار 1ساعة و 24 دقيقة قبل الساعة 15:00UTC
ريح 2 عقدة من الغرب/الشمال الغربي
درجة الحرارة 14°درجة مئوية
الرطوبة 82%
ضغط 1020 hPa
الرؤية: 6000 متر

METAR: ZUCK 061500Z 29001MPS 6000 NSC 14/11 Q1020 NOSIG

زمن: 00:24 (16:24 UTC)

توقعات

تاريخ ووقت الإصدار 7ساعات و 20 دقيقة قبل الساعة 09:04UTC
التوقعات صالحة من06 الساعة 12 UTC إلى 07 الساعة 12 UTC
ريح 6 عقدة من الشمال/الشمال الشرقي
الرؤية: 6000 متر
غيوم مفككة على ارتفاع 4000 قدم

TAF: ZUCK 060904Z 0612/0712 03003MPS 6000 BKN040 TX20/0707Z TN12/0622Z

أرصاد الطقس والتوقعات من أكثر من 4000 مطار (تقارير الطقس للمطار METAR والتنبؤ بالطقس بالمطارTAF).

المحطات المتاحة هي النقط الصفراء والحمراء على الخريطة.

حرك المؤشر فوق النقطة لمعرفة اسم المحطة.

ثم انقر لمعرفة أرصاد وتوقعات الطقس.

لتغيير الخارطة: اضغط على الأزرار الخضراء مع رمز الصليب الأسود للتكبير. على الزر الأخضر مع شرطة للتصغير، أو على الأسهم الخضراء للخرائط المجاورة.


METAR-TAF: